Time;durP1;ratioP1;P1;durP2;ratioP2;P2;SDS_P1;SDS_P2;PMS_P1;PMS_P2;Temp;Humidity;BMP_temperature;BMP_pressure;BME280_temperature;BME280_humidity;BME280_pressure;Samples;Min_cycle;Max_cycle;Signal;HPM_P1;HPM_P2
2022/10/22 00:01:27;;;;;;;12.20;7.25;;;;;;;;;;5033503;28;20705;-82
2022/10/22 00:03:53;;;;;;;7.90;6.35;;;;;;;;;;5040686;28;20060;-81
2022/10/22 00:06:19;;;;;;;11.45;7.43;;;;;;;;;;5030677;28;20029;-83
2022/10/22 00:08:45;;;;;;;9.75;5.40;;;;;;;;;;5034235;28;20013;-80
2022/10/22 00:11:15;;;;;;;9.93;6.15;;;;;;;;;;5034147;28;20031;-82
2022/10/22 00:13:42;;;;;;;9.98;6.40;;;;;;;;;;5043409;28;20112;-81
2022/10/22 00:16:08;;;;;;;10.77;6.25;;;;;;;;;;5036111;28;20038;-81
2022/10/22 00:18:34;;;;;;;8.20;5.97;;;;;;;;;;5033002;28;20021;-82
2022/10/22 00:21:01;;;;;;;6.75;5.20;;;;;;;;;;5033179;28;20026;-82
2022/10/22 00:23:27;;;;;;;7.07;4.43;;;;;;;;;;5032916;28;20032;-83
2022/10/22 00:25:53;;;;;;;7.25;4.20;;;;;;;;;;5032783;28;20030;-82
2022/10/22 00:28:20;;;;;;;9.20;4.97;;;;;;;;;;5032926;28;20038;-82
2022/10/22 00:30:46;;;;;;;5.30;4.35;;;;;;;;;;5032820;28;20028;-82
2022/10/22 00:33:12;;;;;;;6.72;5.20;;;;;;;;;;5032779;28;20128;-83
2022/10/22 00:35:38;;;;;;;7.13;5.47;;;;;;;;;;5031007;28;20037;-83
2022/10/22 00:38:05;;;;;;;7.47;4.78;;;;;;;;;;5032555;28;20022;-83
2022/10/22 00:40:31;;;;;;;7.68;5.45;;;;;;;;;;5025413;28;20080;-82
2022/10/22 00:42:57;;;;;;;7.30;5.20;;;;;;;;;;5030666;28;20025;-82
2022/10/22 00:45:24;;;;;;;7.32;6.38;;;;;;;;;;5033152;28;20381;-81
2022/10/22 00:47:50;;;;;;;;;;;;;;;;;;5033056;28;20053;-83
2022/10/22 00:50:22;;;;;;;9.05;6.25;;;;;;;;;;5032592;28;19956;-81
2022/10/22 00:52:49;;;;;;;8.30;5.93;;;;;;;;;;5032240;28;20032;-82
2022/10/22 00:55:15;;;;;;;8.60;5.87;;;;;;;;;;5030096;28;20060;-81
2022/10/22 00:57:42;;;;;;;7.70;6.00;;;;;;;;;;5029760;28;20101;-82
2022/10/22 01:00:08;;;;;;;8.82;6.53;;;;;;;;;;5032295;28;20084;-81
2022/10/22 01:02:35;;;;;;;9.07;6.82;;;;;;;;;;5032328;28;20026;-82
2022/10/22 01:05:01;;;;;;;8.52;6.30;;;;;;;;;;5032310;28;20067;-81
2022/10/22 01:07:27;;;;;;;9.68;7.28;;;;;;;;;;5032123;28;20029;-81
2022/10/22 01:09:56;;;;;;;8.82;6.47;;;;;;;;;;5030865;28;20390;-81
2022/10/22 01:12:41;;;;;;;7.63;5.97;;;;;;;;;;5032416;28;20033;-80
2022/10/22 01:15:09;;;;;;;9.15;6.65;;;;;;;;;;5031966;28;20111;-81
2022/10/22 01:17:52;;;;;;;11.45;7.63;;;;;;;;;;5034674;28;20036;-80
2022/10/22 01:20:34;;;;;;;8.10;5.88;;;;;;;;;;5037251;28;20063;-82
2022/10/22 01:23:15;;;;;;;8.05;5.65;;;;;;;;;;5038766;28;20379;-80
2022/10/22 01:25:50;;;;;;;8.82;6.57;;;;;;;;;;5040984;28;20100;-81
2022/10/22 01:28:16;;;;;;;14.63;8.05;;;;;;;;;;5035343;28;20033;-79
2022/10/22 01:30:44;;;;;;;11.20;6.82;;;;;;;;;;5036443;28;20025;-80
2022/10/22 01:33:12;;;;;;;9.20;6.70;;;;;;;;;;5035740;28;20029;-82
2022/10/22 01:35:39;;;;;;;11.10;7.60;;;;;;;;;;5036889;28;20409;-82
2022/10/22 01:38:08;;;;;;;10.60;7.97;;;;;;;;;;5036200;28;20025;-82
2022/10/22 01:40:34;;;;;;;7.75;6.68;;;;;;;;;;5036190;28;20060;-82
2022/10/22 01:43:05;;;;;;;8.27;6.82;;;;;;;;;;5035636;28;20048;-82
2022/10/22 01:45:34;;;;;;;10.65;6.97;;;;;;;;;;5049218;28;20032;-80
2022/10/22 01:48:00;;;;;;;11.63;7.72;;;;;;;;;;5048123;28;20057;-81
2022/10/22 01:50:32;;;;;;;9.73;7.63;;;;;;;;;;5051478;28;20093;-83
2022/10/22 01:52:58;;;;;;;10.65;7.88;;;;;;;;;;5034979;28;20514;-83
2022/10/22 01:55:35;;;;;;;10.98;7.70;;;;;;;;;;5033201;28;20057;-83
2022/10/22 01:58:01;;;;;;;;;;;;;;;;;;5036652;28;20378;-81
2022/10/22 02:00:28;;;;;;;11.30;7.05;;;;;;;;;;5036674;28;19970;-83
2022/10/22 02:03:05;;;;;;;11.82;7.20;;;;;;;;;;5037050;28;20029;-85
2022/10/22 02:05:31;;;;;;;;;;;;;;;;;;5034738;28;20021;-82
2022/10/22 02:08:00;;;;;;;10.43;7.53;;;;;;;;;;5035659;28;20382;-82
2022/10/22 02:10:27;;;;;;;10.38;7.97;;;;;;;;;;5035370;28;20096;-80
2022/10/22 02:12:55;;;;;;;12.60;7.53;;;;;;;;;;5035226;28;20056;-82
2022/10/22 02:15:23;;;;;;;10.43;8.07;;;;;;;;;;5035499;28;20033;-82
2022/10/22 02:17:50;;;;;;;11.10;6.63;;;;;;;;;;5035640;28;20024;-81
2022/10/22 02:20:19;;;;;;;14.85;9.15;;;;;;;;;;5037442;28;20048;-82
2022/10/22 02:22:46;;;;;;;12.98;9.70;;;;;;;;;;5037289;28;20450;-82
2022/10/22 02:25:12;;;;;;;14.25;9.98;;;;;;;;;;5036917;28;20433;-82
2022/10/22 02:27:46;;;;;;;14.85;10.00;;;;;;;;;;5036810;28;20037;-81
2022/10/22 02:30:22;;;;;;;13.60;10.18;;;;;;;;;;5040159;28;20443;-81
2022/10/22 02:33:04;;;;;;;14.88;10.50;;;;;;;;;;5036266;28;20474;-82
2022/10/22 02:35:30;;;;;;;12.43;9.32;;;;;;;;;;5035522;28;20029;-82
2022/10/22 02:37:58;;;;;;;15.33;11.40;;;;;;;;;;5033931;28;20033;-82
2022/10/22 02:40:24;;;;;;;17.55;11.15;;;;;;;;;;5034336;28;20401;-82
2022/10/22 02:42:51;;;;;;;16.10;10.18;;;;;;;;;;5034985;28;20044;-83
2022/10/22 02:45:18;;;;;;;13.48;9.98;;;;;;;;;;5033459;28;20490;-83
2022/10/22 02:47:44;;;;;;;16.60;10.85;;;;;;;;;;5034799;28;20033;-80
2022/10/22 02:50:13;;;;;;;13.88;10.80;;;;;;;;;;5034284;28;20044;-81
2022/10/22 02:52:39;;;;;;;12.02;8.88;;;;;;;;;;5021180;28;20033;-80
2022/10/22 02:55:06;;;;;;;13.57;9.82;;;;;;;;;;5033497;28;20034;-82
2022/10/22 02:57:32;;;;;;;13.52;9.20;;;;;;;;;;5033320;28;20017;-82
2022/10/22 02:59:58;;;;;;;12.63;9.43;;;;;;;;;;5034726;28;20036;-80
2022/10/22 03:02:24;;;;;;;14.50;9.43;;;;;;;;;;5035237;28;20029;-82
2022/10/22 03:04:50;;;;;;;12.40;8.23;;;;;;;;;;5035908;28;20099;-82
2022/10/22 03:07:17;;;;;;;11.15;8.18;;;;;;;;;;5034678;28;20053;-83
2022/10/22 03:09:43;;;;;;;13.50;9.30;;;;;;;;;;5042011;28;20071;-81
2022/10/22 03:12:09;;;;;;;14.02;9.88;;;;;;;;;;5044486;28;20417;-81
2022/10/22 03:14:35;;;;;;;13.52;9.85;;;;;;;;;;5037437;28;20064;-82
2022/10/22 03:17:01;;;;;;;11.73;9.20;;;;;;;;;;5035922;28;20021;-81
2022/10/22 03:19:27;;;;;;;11.90;9.05;;;;;;;;;;5049843;28;20029;-80
2022/10/22 03:21:56;;;;;;;9.63;7.93;;;;;;;;;;5039059;28;20124;-81
2022/10/22 03:24:29;;;;;;;10.82;8.60;;;;;;;;;;5035565;28;20402;-82
2022/10/22 03:26:55;;;;;;;12.35;9.18;;;;;;;;;;5034676;28;20382;-81
2022/10/22 03:29:23;;;;;;;12.20;9.27;;;;;;;;;;5033979;28;20017;-82
2022/10/22 03:31:49;;;;;;;11.65;9.43;;;;;;;;;;5034513;28;20071;-82
2022/10/22 03:34:15;;;;;;;13.52;8.93;;;;;;;;;;5039209;28;20064;-82
2022/10/22 03:36:41;;;;;;;11.38;8.52;;;;;;;;;;5047889;28;20029;-83
2022/10/22 03:39:08;;;;;;;11.73;9.77;;;;;;;;;;5032786;28;20482;-84
2022/10/22 03:41:35;;;;;;;13.32;9.35;;;;;;;;;;5032552;28;20139;-81
2022/10/22 03:44:02;;;;;;;11.23;8.00;;;;;;;;;;5033711;28;20025;-81
2022/10/22 03:46:28;;;;;;;11.77;8.43;;;;;;;;;;5033613;28;20289;-83
2022/10/22 03:48:54;;;;;;;13.20;7.75;;;;;;;;;;5033579;28;20021;-82
2022/10/22 03:51:20;;;;;;;9.45;6.75;;;;;;;;;;5034094;28;20064;-84
2022/10/22 03:53:47;;;;;;;8.95;7.00;;;;;;;;;;5033512;28;20101;-82
2022/10/22 03:56:13;;;;;;;9.93;7.43;;;;;;;;;;5030779;28;20060;-82
2022/10/22 03:58:40;;;;;;;10.27;6.57;;;;;;;;;;5032999;28;20105;-82
2022/10/22 04:01:06;;;;;;;8.50;6.83;;;;;;;;;;5032922;28;20581;-83
2022/10/22 04:03:32;;;;;;;8.50;6.07;;;;;;;;;;5034543;28;20029;-81
2022/10/22 04:06:03;;;;;;;9.35;6.63;;;;;;;;;;5035405;28;20494;-81
2022/10/22 04:08:29;;;;;;;10.95;6.70;;;;;;;;;;5033704;28;20482;-82
2022/10/22 04:10:55;;;;;;;10.70;6.93;;;;;;;;;;5033209;28;20064;-85
2022/10/22 04:13:21;;;;;;;10.88;6.90;;;;;;;;;;5033448;28;20057;-82
2022/10/22 04:15:47;;;;;;;13.75;7.65;;;;;;;;;;5031957;28;20454;-81
2022/10/22 04:18:13;;;;;;;9.45;6.47;;;;;;;;;;5032855;28;20029;-83
2022/10/22 04:20:40;;;;;;;9.15;7.47;;;;;;;;;;5032744;28;20112;-82
2022/10/22 04:23:07;;;;;;;14.05;8.25;;;;;;;;;;5032850;28;20409;-82
2022/10/22 04:25:33;;;;;;;11.98;7.95;;;;;;;;;;5032859;28;20072;-82
2022/10/22 04:27:59;;;;;;;12.23;8.38;;;;;;;;;;5033239;28;20053;-85
2022/10/22 04:30:25;;;;;;;14.50;9.55;;;;;;;;;;5032932;28;20462;-83
2022/10/22 04:32:51;;;;;;;11.35;8.13;;;;;;;;;;5035995;28;20127;-81
2022/10/22 04:35:17;;;;;;;12.57;9.07;;;;;;;;;;5035765;28;20040;-82
2022/10/22 04:37:43;;;;;;;9.75;8.25;;;;;;;;;;5041435;28;20026;-83
2022/10/22 04:40:10;;;;;;;14.50;8.60;;;;;;;;;;5035232;28;20145;-81
2022/10/22 04:42:36;;;;;;;12.68;9.02;;;;;;;;;;5032496;28;20553;-81
2022/10/22 04:45:02;;;;;;;12.00;8.80;;;;;;;;;;5035173;28;20029;-83
2022/10/22 04:47:28;;;;;;;16.90;8.68;;;;;;;;;;5036639;28;20021;-82
2022/10/22 04:49:54;;;;;;;11.57;8.32;;;;;;;;;;5039250;28;20086;-82
2022/10/22 04:52:20;;;;;;;15.25;8.88;;;;;;;;;;5046848;28;20022;-82
2022/10/22 04:54:46;;;;;;;11.43;9.32;;;;;;;;;;5033005;28;20033;-82
2022/10/22 04:57:13;;;;;;;15.50;10.13;;;;;;;;;;5029913;28;20029;-83
2022/10/22 04:59:39;;;;;;;12.38;10.07;;;;;;;;;;5031546;28;20026;-82
2022/10/22 05:02:05;;;;;;;15.50;10.35;;;;;;;;;;5032514;28;20382;-83
2022/10/22 05:04:31;;;;;;;12.65;10.30;;;;;;;;;;5031481;28;20024;-82
2022/10/22 05:06:58;;;;;;;15.93;10.90;;;;;;;;;;5033222;28;20025;-83
2022/10/22 05:09:24;;;;;;;16.85;10.93;;;;;;;;;;5032842;28;20014;-83
2022/10/22 05:11:51;;;;;;;14.25;10.43;;;;;;;;;;5033301;28;20079;-83
2022/10/22 05:14:19;;;;;;;14.68;11.10;;;;;;;;;;5032845;28;20479;-82
2022/10/22 05:16:46;;;;;;;15.75;11.05;;;;;;;;;;5049418;28;20048;-80
2022/10/22 05:19:12;;;;;;;;;;;;;;;;;;5041294;28;20029;-82
2022/10/22 05:21:38;;;;;;;12.23;10.73;;;;;;;;;;5049403;28;19968;-82
2022/10/22 05:24:05;;;;;;;16.45;12.27;;;;;;;;;;5033727;28;20057;-83
2022/10/22 05:26:31;;;;;;;18.05;12.00;;;;;;;;;;5031176;28;20064;-83
2022/10/22 05:28:57;;;;;;;16.83;11.38;;;;;;;;;;5032571;28;20014;-82
2022/10/22 05:31:23;;;;;;;18.80;12.02;;;;;;;;;;5032378;28;20026;-83
2022/10/22 05:33:49;;;;;;;19.77;12.20;;;;;;;;;;5031905;28;20028;-82
2022/10/22 05:36:17;;;;;;;14.68;11.15;;;;;;;;;;5031904;28;20072;-82
2022/10/22 05:38:43;;;;;;;12.93;10.90;;;;;;;;;;5031950;28;20026;-82
2022/10/22 05:41:11;;;;;;;19.85;12.13;;;;;;;;;;5030501;28;20032;-81
2022/10/22 05:43:37;;;;;;;11.85;8.60;;;;;;;;;;5031660;28;20017;-80
2022/10/22 05:46:05;;;;;;;9.52;7.28;;;;;;;;;;5030594;28;20022;-81
2022/10/22 05:48:31;;;;;;;11.60;8.18;;;;;;;;;;5032280;28;20017;-83
2022/10/22 05:51:03;;;;;;;12.25;8.95;;;;;;;;;;5032299;28;20051;-82
2022/10/22 05:53:30;;;;;;;12.48;9.32;;;;;;;;;;5032977;28;20117;-84
2022/10/22 05:55:56;;;;;;;12.70;10.17;;;;;;;;;;5031412;28;20061;-84
2022/10/22 05:58:22;;;;;;;13.85;10.15;;;;;;;;;;5031914;28;20104;-84
2022/10/22 06:00:48;;;;;;;12.48;9.93;;;;;;;;;;5032242;28;20026;-81
2022/10/22 06:03:14;;;;;;;14.70;10.27;;;;;;;;;;5032939;28;20029;-81
2022/10/22 06:05:40;;;;;;;13.23;9.63;;;;;;;;;;5034372;28;20084;-80
2022/10/22 06:08:06;;;;;;;17.92;10.15;;;;;;;;;;5034498;28;20031;-80
2022/10/22 06:10:33;;;;;;;17.30;11.02;;;;;;;;;;5035725;28;20033;-83
2022/10/22 06:13:00;;;;;;;15.35;11.18;;;;;;;;;;5035436;28;20021;-81
2022/10/22 06:15:26;;;;;;;15.82;10.43;;;;;;;;;;5035382;28;20035;-82
2022/10/22 06:17:52;;;;;;;13.77;10.90;;;;;;;;;;5034098;28;20037;-80
2022/10/22 06:20:18;;;;;;;17.00;10.52;;;;;;;;;;5035277;28;20063;-82
2022/10/22 06:22:47;;;;;;;16.77;11.10;;;;;;;;;;5036810;28;20081;-82
2022/10/22 06:25:13;;;;;;;12.30;9.63;;;;;;;;;;5044150;28;20160;-83
2022/10/22 06:27:39;;;;;;;14.18;9.75;;;;;;;;;;5034934;28;20022;-82
2022/10/22 06:30:05;;;;;;;12.43;9.48;;;;;;;;;;5033532;28;20474;-83
2022/10/22 06:32:32;;;;;;;13.20;8.95;;;;;;;;;;5033660;28;20037;-83
2022/10/22 06:34:58;;;;;;;10.68;8.10;;;;;;;;;;5034932;28;20080;-83
2022/10/22 06:37:24;;;;;;;9.60;7.95;;;;;;;;;;5034938;28;20028;-84
2022/10/22 06:39:50;;;;;;;12.18;8.82;;;;;;;;;;5034567;28;20104;-84
2022/10/22 06:42:16;;;;;;;9.98;8.32;;;;;;;;;;5034586;28;20021;-83
2022/10/22 06:44:42;;;;;;;13.90;9.88;;;;;;;;;;5034487;28;20034;-83
2022/10/22 06:47:08;;;;;;;12.45;9.00;;;;;;;;;;5034865;28;20029;-82
2022/10/22 06:49:34;;;;;;;10.43;8.00;;;;;;;;;;5034710;28;20440;-83
2022/10/22 06:52:00;;;;;;;9.68;7.57;;;;;;;;;;5034989;28;20026;-83
2022/10/22 06:54:26;;;;;;;13.65;7.78;;;;;;;;;;5035245;28;20055;-83
2022/10/22 06:56:53;;;;;;;8.57;6.72;;;;;;;;;;5033019;28;20033;-84
2022/10/22 06:59:19;;;;;;;12.15;7.13;;;;;;;;;;5040543;28;20021;-83
2022/10/22 07:01:45;;;;;;;12.40;7.20;;;;;;;;;;5039044;28;20032;-82
2022/10/22 07:04:11;;;;;;;7.72;5.57;;;;;;;;;;5040508;28;20018;-82
2022/10/22 07:06:37;;;;;;;11.48;8.00;;;;;;;;;;5042090;28;20030;-83
2022/10/22 07:09:03;;;;;;;8.10;7.28;;;;;;;;;;5036100;28;20068;-82
2022/10/22 07:11:32;;;;;;;6.75;5.85;;;;;;;;;;5035129;28;20028;-82
2022/10/22 07:14:02;;;;;;;9.27;6.45;;;;;;;;;;5034586;28;20021;-79
2022/10/22 07:16:28;;;;;;;7.80;5.07;;;;;;;;;;5038802;28;20029;-82
2022/10/22 07:18:54;;;;;;;6.18;5.10;;;;;;;;;;5045651;28;20033;-80
2022/10/22 07:21:21;;;;;;;6.70;4.65;;;;;;;;;;5036702;28;20017;-83
2022/10/22 07:23:47;;;;;;;7.47;4.72;;;;;;;;;;5034486;28;20029;-82
2022/10/22 07:26:14;;;;;;;9.45;5.53;;;;;;;;;;5032836;28;20037;-83
2022/10/22 07:28:41;;;;;;;7.45;4.85;;;;;;;;;;5033780;28;20026;-82
2022/10/22 07:31:08;;;;;;;10.25;6.22;;;;;;;;;;5033755;28;20443;-83
2022/10/22 07:33:35;;;;;;;6.00;4.63;;;;;;;;;;5034164;28;20437;-82
2022/10/22 07:36:02;;;;;;;9.13;5.22;;;;;;;;;;5035071;28;20033;-85
2022/10/22 07:38:28;;;;;;;5.68;4.95;;;;;;;;;;5039069;28;20025;-82
2022/10/22 07:40:55;;;;;;;6.70;5.03;;;;;;;;;;5038410;28;20397;-82
2022/10/22 07:43:24;;;;;;;6.25;5.05;;;;;;;;;;5034913;28;20097;-86
2022/10/22 07:45:51;;;;;;;6.72;4.38;;;;;;;;;;5035513;28;20563;-82
2022/10/22 07:48:17;;;;;;;9.18;5.53;;;;;;;;;;5037981;28;20021;-81
2022/10/22 07:50:43;;;;;;;7.53;5.10;;;;;;;;;;5034117;28;20088;-84
2022/10/22 07:53:09;;;;;;;8.85;5.07;;;;;;;;;;5034131;28;20049;-82
2022/10/22 07:55:38;;;;;;;6.70;5.07;;;;;;;;;;5035808;28;20092;-85
2022/10/22 07:58:04;;;;;;;4.82;3.97;;;;;;;;;;5045366;28;20076;-82
2022/10/22 08:00:31;;;;;;;7.40;3.97;;;;;;;;;;5027549;28;20406;-84
2022/10/22 08:02:57;;;;;;;4.25;3.35;;;;;;;;;;5015071;28;20052;-83
2022/10/22 08:05:23;;;;;;;5.32;3.60;;;;;;;;;;5019749;28;20052;-83
2022/10/22 08:07:49;;;;;;;5.53;3.33;;;;;;;;;;5019079;28;20025;-82
2022/10/22 08:10:15;;;;;;;5.72;2.90;;;;;;;;;;5015449;28;20022;-84
2022/10/22 08:12:41;;;;;;;6.55;3.42;;;;;;;;;;5029240;28;20021;-84
2022/10/22 08:15:08;;;;;;;5.95;3.53;;;;;;;;;;5026564;28;20044;-82
2022/10/22 08:17:34;;;;;;;9.20;4.05;;;;;;;;;;5031492;28;20394;-83
2022/10/22 08:20:00;;;;;;;3.97;3.00;;;;;;;;;;5030083;28;20034;-83
2022/10/22 08:22:26;;;;;;;12.88;4.38;;;;;;;;;;5023700;28;20022;-83
2022/10/22 08:24:52;;;;;;;9.13;4.20;;;;;;;;;;5032183;28;20108;-82
2022/10/22 08:27:18;;;;;;;6.45;3.85;;;;;;;;;;5032716;28;20064;-84
2022/10/22 08:29:45;;;;;;;5.18;3.70;;;;;;;;;;5024507;28;20029;-84
2022/10/22 08:32:11;;;;;;;7.15;4.25;;;;;;;;;;5032520;28;20021;-84
2022/10/22 08:34:37;;;;;;;7.88;4.95;;;;;;;;;;5032570;28;20053;-83
2022/10/22 08:37:04;;;;;;;9.00;5.15;;;;;;;;;;5031238;28;20436;-82
2022/10/22 08:39:30;;;;;;;5.32;4.35;;;;;;;;;;5031410;28;20018;-82
2022/10/22 08:42:16;;;;;;;6.45;4.28;;;;;;;;;;5030373;28;20029;-83
2022/10/22 08:44:45;;;;;;;10.07;4.45;;;;;;;;;;5032873;28;20099;-81
2022/10/22 08:47:11;;;;;;;7.88;5.95;;;;;;;;;;5034453;28;20112;-82
2022/10/22 08:49:40;;;;;;;8.60;5.53;;;;;;;;;;5031251;28;20057;-85
2022/10/22 08:52:09;;;;;;;10.27;6.72;;;;;;;;;;5038484;28;20056;-84
2022/10/22 08:54:56;;;;;;;6.88;5.32;;;;;;;;;;5029949;28;20034;-82
2022/10/22 08:57:29;;;;;;;7.25;5.60;;;;;;;;;;5030926;28;20017;-84
2022/10/22 09:00:04;;;;;;;6.70;5.45;;;;;;;;;;5033834;28;20029;-83
2022/10/22 09:02:33;;;;;;;12.38;10.00;;;;;;;;;;5020485;28;20013;-80
2022/10/22 09:05:15;;;;;;;21.10;13.20;;;;;;;;;;5032370;28;20096;-82
2022/10/22 09:08:12;;;;;;;16.50;12.65;;;;;;;;;;5029486;28;20037;-83
2022/10/22 09:10:40;;;;;;;14.52;9.60;;;;;;;;;;5026855;28;20855;-87
2022/10/22 09:13:08;;;;;;;11.07;6.40;;;;;;;;;;5037141;28;20104;-87
2022/10/22 09:15:34;;;;;;;9.85;5.82;;;;;;;;;;5045360;28;20040;-87
2022/10/22 09:18:23;;;;;;;8.00;6.43;;;;;;;;;;5051553;28;20021;-86
2022/10/22 09:20:53;;;;;;;13.43;6.47;;;;;;;;;;5052265;28;20049;-86
2022/10/22 09:23:28;;;;;;;9.02;5.45;;;;;;;;;;5038471;28;20378;-87
2022/10/22 09:25:56;;;;;;;9.60;5.82;;;;;;;;;;5032088;28;20030;-88
2022/10/22 09:28:22;;;;;;;7.30;4.88;;;;;;;;;;5037202;28;20026;-91
2022/10/22 09:33:39;;;;;;;8.02;5.55;;;;;;;;;;5021730;28;20041;-88
2022/10/22 09:36:06;;;;;;;6.45;4.97;;;;;;;;;;5033110;28;20091;-87
2022/10/22 09:38:38;;;;;;;7.82;5.25;;;;;;;;;;5036522;28;20108;-87
2022/10/22 09:41:04;;;;;;;9.70;5.20;;;;;;;;;;5038864;28;20088;-88
2022/10/22 09:43:31;;;;;;;5.95;4.72;;;;;;;;;;5037206;28;20049;-86
2022/10/22 09:46:01;;;;;;;9.07;5.70;;;;;;;;;;5034416;28;20026;-87
2022/10/22 09:48:33;;;;;;;8.23;5.40;;;;;;;;;;5039071;28;20045;-87
2022/10/22 09:51:18;;;;;;;14.02;6.18;;;;;;;;;;5033476;28;20045;-85
2022/10/22 09:53:45;;;;;;;7.93;5.40;;;;;;;;;;5037737;28;20378;-85
2022/10/22 09:56:25;;;;;;;9.88;5.20;;;;;;;;;;5035706;28;20037;-85
2022/10/22 09:58:51;;;;;;;7.90;5.13;;;;;;;;;;5038468;28;20475;-83
2022/10/22 10:01:18;;;;;;;9.13;5.50;;;;;;;;;;5030771;28;20072;-84
2022/10/22 10:03:44;;;;;;;6.78;5.22;;;;;;;;;;5019662;28;20037;-83
2022/10/22 10:06:11;;;;;;;8.15;5.70;;;;;;;;;;5031469;28;20025;-83
2022/10/22 10:08:37;;;;;;;7.22;4.72;;;;;;;;;;5036135;28;20156;-81
2022/10/22 10:11:13;;;;;;;5.50;3.65;;;;;;;;;;5038139;28;20032;-82
2022/10/22 10:13:54;;;;;;;7.80;4.55;;;;;;;;;;5037283;28;20524;-83
2022/10/22 10:16:23;;;;;;;9.73;5.15;;;;;;;;;;5038846;28;20068;-81
2022/10/22 10:19:05;;;;;;;6.45;4.18;;;;;;;;;;5039132;28;20025;-83
2022/10/22 10:21:39;;;;;;;10.57;4.93;;;;;;;;;;5035503;28;20037;-84
2022/10/22 10:24:15;;;;;;;5.63;4.65;;;;;;;;;;5039093;28;20100;-82
2022/10/22 10:26:56;;;;;;;7.05;4.85;;;;;;;;;;5034781;28;20037;-78
2022/10/22 10:29:29;;;;;;;7.55;5.60;;;;;;;;;;5029586;28;20320;-81
2022/10/22 10:31:55;;;;;;;11.75;5.38;;;;;;;;;;5035556;28;20505;-81
2022/10/22 10:34:21;;;;;;;6.22;4.07;;;;;;;;;;5035281;28;20042;-81
2022/10/22 10:36:50;;;;;;;8.02;4.80;;;;;;;;;;5037385;28;20032;-79
2022/10/22 10:39:16;;;;;;;9.05;5.10;;;;;;;;;;5040341;28;20033;-80
2022/10/22 10:41:52;;;;;;;6.30;4.78;;;;;;;;;;5028708;28;20022;-81
2022/10/22 10:44:19;;;;;;;5.30;4.30;;;;;;;;;;5032327;28;20025;-81
2022/10/22 10:47:05;;;;;;;6.75;4.32;;;;;;;;;;5035938;28;20025;-82
2022/10/22 10:49:34;;;;;;;8.88;4.60;;;;;;;;;;5032472;28;20068;-81
2022/10/22 10:52:15;;;;;;;8.52;5.20;;;;;;;;;;5035105;28;20494;-82
2022/10/22 10:54:59;;;;;;;6.10;4.63;;;;;;;;;;5034688;28;20041;-82
2022/10/22 10:57:31;;;;;;;6.57;4.82;;;;;;;;;;5033928;28;20093;-80
2022/10/22 11:00:13;;;;;;;11.98;6.15;;;;;;;;;;5036502;28;20438;-80
2022/10/22 11:02:39;;;;;;;6.82;6.05;;;;;;;;;;5039553;28;20051;-81
2022/10/22 11:05:27;;;;;;;7.05;4.93;;;;;;;;;;5037752;28;20096;-81
2022/10/22 11:07:53;;;;;;;;;;;;;;;;;;5036021;28;20069;-81
2022/10/22 11:10:19;;;;;;;8.63;4.60;;;;;;;;;;5034622;28;19959;-82
2022/10/22 11:12:49;;;;;;;9.55;4.80;;;;;;;;;;5034831;28;20018;-79
2022/10/22 11:15:24;;;;;;;9.48;6.47;;;;;;;;;;5034296;28;20049;-80
2022/10/22 11:17:56;;;;;;;7.07;5.38;;;;;;;;;;5038405;28;20026;-81
2022/10/22 11:20:25;;;;;;;8.05;4.60;;;;;;;;;;5021056;28;20184;-79
2022/10/22 11:23:00;;;;;;;13.98;7.13;;;;;;;;;;5038101;28;20045;-78
2022/10/22 11:25:46;;;;;;;8.32;4.95;;;;;;;;;;5031045;28;20024;-79
2022/10/22 11:28:14;;;;;;;9.85;6.38;;;;;;;;;;5033129;28;20497;-81
2022/10/22 11:30:41;;;;;;;8.18;5.88;;;;;;;;;;5035081;28;20032;-81
2022/10/22 11:33:10;;;;;;;13.20;8.40;;;;;;;;;;5033205;28;20044;-81
2022/10/22 11:35:44;;;;;;;6.65;4.50;;;;;;;;;;5035990;28;20325;-78
2022/10/22 11:38:19;;;;;;;6.47;4.60;;;;;;;;;;5038832;28;21569;-79
2022/10/22 11:40:46;;;;;;;13.95;5.43;;;;;;;;;;5034824;28;20033;-81
2022/10/22 11:43:25;;;;;;;8.80;4.22;;;;;;;;;;5036175;28;20029;-82
2022/10/22 11:46:00;;;;;;;10.45;5.45;;;;;;;;;;5037707;28;20049;-83
2022/10/22 11:48:27;;;;;;;7.13;4.63;;;;;;;;;;5039090;28;20085;-82
2022/10/22 11:50:59;;;;;;;4.43;3.63;;;;;;;;;;5038728;28;20068;-80
2022/10/22 11:53:25;;;;;;;7.47;4.95;;;;;;;;;;5028662;28;20029;-82
2022/10/22 11:55:58;;;;;;;4.95;3.47;;;;;;;;;;5021989;28;20041;-81
2022/10/22 11:58:27;;;;;;;5.93;3.25;;;;;;;;;;5022626;28;20046;-81
2022/10/22 12:01:09;;;;;;;4.45;3.40;;;;;;;;;;5025169;28;20394;-82
2022/10/22 12:03:36;;;;;;;6.95;3.75;;;;;;;;;;5026425;28;20021;-81
2022/10/22 12:06:12;;;;;;;11.45;6.90;;;;;;;;;;5035154;28;20017;-80
2022/10/22 12:08:44;;;;;;;6.85;3.47;;;;;;;;;;5025398;28;20494;-80
2022/10/22 12:11:10;;;;;;;6.63;4.80;;;;;;;;;;5033616;28;20025;-81
2022/10/22 12:13:58;;;;;;;8.02;5.50;;;;;;;;;;5033678;28;20029;-81
2022/10/22 12:16:25;;;;;;;8.65;4.18;;;;;;;;;;5023687;28;20141;-81
2022/10/22 12:18:56;;;;;;;6.03;3.42;;;;;;;;;;5022912;28;20514;-82
2022/10/22 12:21:22;;;;;;;8.25;3.70;;;;;;;;;;5023501;28;20482;-81
2022/10/22 12:23:48;;;;;;;7.55;3.92;;;;;;;;;;5034832;28;20074;-81
2022/10/22 12:26:25;;;;;;;6.88;4.22;;;;;;;;;;5035994;28;20036;-81
2022/10/22 12:28:56;;;;;;;5.60;3.97;;;;;;;;;;5026043;28;20053;-79
2022/10/22 12:31:23;;;;;;;7.55;4.75;;;;;;;;;;5032737;28;20038;-81
2022/10/22 12:33:55;;;;;;;5.15;3.67;;;;;;;;;;5033118;28;20025;-80
2022/10/22 12:36:21;;;;;;;7.68;4.38;;;;;;;;;;5033716;28;20033;-80
2022/10/22 12:38:47;;;;;;;9.70;3.72;;;;;;;;;;5032331;28;20364;-81
2022/10/22 12:41:14;;;;;;;4.60;3.33;;;;;;;;;;5032554;28;20099;-81
2022/10/22 12:43:40;;;;;;;8.70;4.75;;;;;;;;;;5032429;28;20040;-78
2022/10/22 12:46:15;;;;;;;6.10;4.20;;;;;;;;;;5032127;28;20071;-81
2022/10/22 12:48:45;;;;;;;8.15;4.60;;;;;;;;;;5020207;28;20033;-81
2022/10/22 12:51:15;;;;;;;11.25;5.38;;;;;;;;;;5031941;28;20475;-80
2022/10/22 12:53:46;;;;;;;5.47;3.70;;;;;;;;;;5032089;28;20382;-79
2022/10/22 12:56:20;;;;;;;11.75;4.68;;;;;;;;;;5031862;28;20033;-80
2022/10/22 12:58:49;;;;;;;10.43;5.97;;;;;;;;;;5031670;28;20044;-80
2022/10/22 13:01:18;;;;;;;11.63;5.90;;;;;;;;;;5031070;28;20021;-80
2022/10/22 13:03:46;;;;;;;10.85;6.75;;;;;;;;;;5032829;28;20029;-78
2022/10/22 13:06:18;;;;;;;5.40;4.00;;;;;;;;;;5032296;28;20040;-80
2022/10/22 13:08:45;;;;;;;9.52;4.28;;;;;;;;;;5032793;28;20036;-80
2022/10/22 13:11:20;;;;;;;8.82;5.15;;;;;;;;;;5033728;28;20025;-81
2022/10/22 13:13:46;;;;;;;6.05;4.22;;;;;;;;;;5032923;28;20032;-83
2022/10/22 13:16:17;;;;;;;10.13;4.55;;;;;;;;;;5024683;28;20037;-78
2022/10/22 13:18:43;;;;;;;12.77;6.63;;;;;;;;;;5026073;28;20132;-79
2022/10/22 13:21:32;;;;;;;10.48;6.75;;;;;;;;;;5017914;28;20028;-79
2022/10/22 13:24:00;;;;;;;2.47;1.90;;;;;;;;;;5016234;28;20030;-78
2022/10/22 13:26:31;;;;;;;2.78;1.75;;;;;;;;;;5039697;28;20018;-80
2022/10/22 13:29:01;;;;;;;6.75;2.60;;;;;;;;;;5033881;28;20026;-81
2022/10/22 13:31:31;;;;;;;5.43;2.85;;;;;;;;;;5033245;28;20017;-80
2022/10/22 13:34:02;;;;;;;5.60;2.00;;;;;;;;;;5033166;28;20027;-79
2022/10/22 13:36:28;;;;;;;2.70;2.13;;;;;;;;;;5031578;28;20043;-80
2022/10/22 13:38:55;;;;;;;6.95;3.70;;;;;;;;;;5024788;28;20032;-80
2022/10/22 13:41:29;;;;;;;3.15;2.67;;;;;;;;;;5032404;28;20017;-81
2022/10/22 13:43:56;;;;;;;3.15;1.85;;;;;;;;;;5030505;28;20022;-81
2022/10/22 13:46:23;;;;;;;3.10;1.63;;;;;;;;;;5026787;28;20018;-81
2022/10/22 13:48:51;;;;;;;4.25;2.92;;;;;;;;;;5032605;28;20722;-81
2022/10/22 13:51:22;;;;;;;1.50;1.10;;;;;;;;;;5033362;28;20414;-82
2022/10/22 13:53:49;;;;;;;3.25;1.73;;;;;;;;;;5046136;28;20068;-83
2022/10/22 13:56:17;;;;;;;3.88;2.22;;;;;;;;;;5042438;28;20025;-82
2022/10/22 13:58:44;;;;;;;2.40;2.17;;;;;;;;;;5036689;28;20068;-81
2022/10/22 14:01:18;;;;;;;20.43;3.77;;;;;;;;;;5034228;28;20095;-81
2022/10/22 14:04:06;;;;;;;2.10;1.77;;;;;;;;;;5027896;28;20277;-81
2022/10/22 14:06:41;;;;;;;5.82;2.00;;;;;;;;;;5035724;28;20029;-81
2022/10/22 14:09:11;;;;;;;2.97;1.70;;;;;;;;;;5055142;28;20033;-83
2022/10/22 14:11:38;;;;;;;2.72;1.90;;;;;;;;;;5040172;28;20041;-80
2022/10/22 14:14:07;;;;;;;3.28;2.28;;;;;;;;;;5027884;28;20026;-81
2022/10/22 14:16:34;;;;;;;4.70;2.22;;;;;;;;;;5033101;28;20033;-80
2022/10/22 14:19:01;;;;;;;6.75;2.42;;;;;;;;;;5033469;28;20028;-79
2022/10/22 14:21:29;;;;;;;4.70;2.58;;;;;;;;;;5020309;28;20112;-81
2022/10/22 14:23:55;;;;;;;3.90;2.60;;;;;;;;;;5032914;28;20052;-83
2022/10/22 14:26:22;;;;;;;4.97;3.45;;;;;;;;;;5038195;28;20013;-82
2022/10/22 14:28:49;;;;;;;4.28;2.92;;;;;;;;;;5033482;28;20100;-78
2022/10/22 14:31:15;;;;;;;5.47;3.25;;;;;;;;;;5034298;28;20045;-82
2022/10/22 14:33:41;;;;;;;8.20;4.60;;;;;;;;;;5034396;28;20034;-81
2022/10/22 14:36:09;;;;;;;7.93;3.53;;;;;;;;;;5032636;28;20081;-82
2022/10/22 14:38:35;;;;;;;8.80;4.30;;;;;;;;;;5037585;28;20018;-83
2022/10/22 14:41:01;;;;;;;13.18;6.43;;;;;;;;;;5029021;28;20034;-84
2022/10/22 14:43:29;;;;;;;7.03;4.47;;;;;;;;;;5041506;28;20022;-83
2022/10/22 14:45:56;;;;;;;7.82;5.53;;;;;;;;;;5036423;28;20506;-82
2022/10/22 14:48:25;;;;;;;10.60;7.50;;;;;;;;;;5036238;28;20041;-81
2022/10/22 14:50:51;;;;;;;10.30;5.57;;;;;;;;;;5037442;28;20564;-82